createdAt,value
2022-09-30T00:08:20.714Z,97210
2022-09-30T00:20:20.624Z,97200
2022-09-30T00:32:20.541Z,97220
2022-09-30T00:44:20.550Z,97230
2022-09-30T00:56:20.538Z,97240
2022-09-30T01:08:20.608Z,97240
2022-09-30T01:20:20.563Z,97240
2022-09-30T01:32:20.544Z,97250
2022-09-30T01:44:20.546Z,97230
2022-09-30T01:56:20.518Z,97240
2022-09-30T02:08:20.612Z,97250
2022-09-30T02:20:20.558Z,97270
2022-09-30T02:32:20.551Z,97270
2022-09-30T02:44:20.968Z,97260
2022-09-30T02:56:20.559Z,97260
2022-09-30T03:08:20.829Z,97260
2022-09-30T03:20:20.553Z,97270
2022-09-30T03:32:20.483Z,97290
2022-09-30T03:44:20.822Z,97310
2022-09-30T03:56:20.553Z,97320
2022-09-30T04:08:20.554Z,97350
2022-09-30T04:20:20.498Z,97350
2022-09-30T04:32:20.554Z,97350
2022-09-30T04:44:20.573Z,97360
2022-09-30T04:56:20.545Z,97380
2022-09-30T05:08:20.583Z,97390
2022-09-30T05:20:21.455Z,97400
2022-09-30T05:32:20.558Z,97410
2022-09-30T05:44:20.562Z,97420
2022-09-30T05:56:21.168Z,97420
2022-09-30T06:08:20.855Z,97440
2022-09-30T06:20:20.612Z,97450
2022-09-30T06:32:20.564Z,97470
2022-09-30T06:44:20.569Z,97480
2022-09-30T06:56:20.567Z,97480
2022-09-30T07:08:20.743Z,97500
2022-09-30T07:20:20.553Z,97500
2022-09-30T07:32:20.602Z,97500
2022-09-30T07:44:20.585Z,97510
2022-09-30T07:56:20.579Z,97510
2022-09-30T08:08:20.606Z,97520
2022-09-30T08:20:22.553Z,97510
2022-09-30T08:32:20.833Z,97530
2022-09-30T08:44:20.715Z,97540
2022-09-30T08:56:20.544Z,97560
2022-09-30T09:08:20.903Z,97570
2022-09-30T09:20:20.676Z,97540
2022-09-30T09:32:20.647Z,97530
2022-09-30T09:44:21.769Z,97520
2022-09-30T09:56:21.134Z,97500
2022-09-30T10:08:20.921Z,97520
2022-09-30T10:20:21.076Z,97530
2022-09-30T10:32:21.148Z,97520
2022-09-30T10:44:21.037Z,97530
2022-09-30T10:56:20.742Z,97530
2022-09-30T11:08:20.582Z,97530
2022-09-30T11:20:20.565Z,97520
2022-09-30T11:32:20.536Z,97510
2022-09-30T11:44:22.134Z,97490
2022-09-30T11:56:20.546Z,97500
2022-09-30T12:08:21.121Z,97480
2022-09-30T12:20:20.603Z,97490
2022-09-30T12:32:21.428Z,97490
2022-09-30T12:44:20.716Z,97490
2022-09-30T14:19:35.518Z,97420
2022-09-30T14:31:35.645Z,97410
2022-09-30T14:47:59.610Z,97410
2022-09-30T14:59:59.600Z,97410
2022-09-30T15:13:24.444Z,97390
2022-09-30T15:25:24.439Z,97390
2022-09-30T15:37:24.391Z,97400
2022-09-30T15:49:24.735Z,97400
2022-09-30T16:01:24.640Z,97400
2022-09-30T16:13:24.721Z,97420
2022-09-30T16:25:24.431Z,97420
2022-09-30T16:37:24.684Z,97420
2022-09-30T16:49:24.419Z,97430
2022-09-30T17:01:24.621Z,97440
2022-09-30T17:13:24.379Z,97450
2022-09-30T17:25:24.392Z,97460
2022-09-30T17:37:24.389Z,97470
2022-09-30T17:49:24.381Z,97470
2022-09-30T18:01:24.446Z,97450
2022-09-30T18:13:24.384Z,97460
2022-09-30T18:25:24.385Z,97470
2022-09-30T18:37:24.388Z,97460
2022-09-30T18:49:24.458Z,97460
2022-09-30T19:01:24.540Z,97480
2022-09-30T19:13:24.395Z,97480
2022-09-30T19:25:24.482Z,97490
2022-09-30T19:37:27.537Z,97490
2022-09-30T19:49:24.387Z,97500
2022-09-30T20:01:24.453Z,97490
2022-09-30T20:13:24.434Z,97480
2022-09-30T20:25:24.379Z,97480
2022-09-30T20:37:24.386Z,97490
2022-09-30T20:49:24.390Z,97490
2022-09-30T21:01:24.475Z,97480
2022-09-30T21:13:24.381Z,97470
2022-09-30T21:25:24.498Z,97460
2022-09-30T21:37:24.379Z,97440
2022-09-30T21:49:25.327Z,97420
2022-09-30T22:01:24.471Z,97420
2022-09-30T22:13:24.490Z,97410
2022-09-30T22:25:24.385Z,97410
2022-09-30T22:37:24.392Z,97400
2022-09-30T22:49:24.388Z,97400
2022-09-30T23:01:24.395Z,97400
2022-09-30T23:13:24.380Z,97380
2022-09-30T23:25:24.505Z,97370
2022-09-30T23:37:24.380Z,97360
2022-09-30T23:49:24.386Z,97350
